Terminal Aerodrome Forecast
Issued by NWS Twin Cities, MN

Home | Current Version | Previous Version | Text Only | Print | Product List | Glossary Off
Versions: 1 2 3 4 5 6 7 8 9 10 11 12 13 14

343
FTUS43 KMPX 162339
TAFEAU
TAF
KEAU 162339Z 1700/1724 21006KT P6SM SCT040 BKN090
     FM170100 20005KT P6SM -SHRA VCTS SCT020 BKN040CB
     FM170500 28008KT P6SM VCSH BKN020
     FM170900 29007KT P6SM BKN025
     FM171500 29008KT P6SM SCT040=

USA.gov is the U.S. government's official web portal to all federal, state and local government web resources and services.